• Join FlightAware (Why Join?)
  • Login
  • US Flag 
03:32AM EST


 

Airport Tracker/Info


-or-


 

Live Flight TrackerFlight Track Log ✈ GAJ23 ✈ 03-May-2013 ✈ KIAD - KPBI

Flight Track Log - Related Links

Times and Time Zones

All times are in EDT time to prevent confusion due to time zone crossing. See the GAJ23 flight status page for this flight to view local times or setup timezone preferences in your user account.

Time Position Orientation Groundspeed Altitude Reporting Facility
EDT Latitude Longitude Course Direction KTS MPH feet Rate Location/Type
06:52PM 38.8667 -77.4500 270° West 199 229 3,600  Level Potomac TRACON
06:53PM 38.8000 -77.4500 180° South 228 262 7,000 3,180 Climbing Potomac TRACON
06:54PM 38.7333 -77.4667 191° South 238 274 10,000 1,860 Climbing Potomac TRACON
06:56PM 38.5825 -77.5597 206° Southwest 276 318 13,400 1,560 Climbing Washington Center
06:57PM 38.3833 -77.5545 270° West  Level FlightAware Approximate
06:57PM 38.5147 -77.6294 219° Southwest 304 350 15,400  Level Washington Center
06:58PM 38.4425 -77.7069 220° Southwest 327 376 17,300 1,740 Climbing Washington Center
06:59PM 38.3722 -77.7819 220° Southwest 337 388 18,900 1,740 Climbing Washington Center
07:00PM 38.2978 -77.8592 219° Southwest 337 388 20,800 1,740 Climbing Washington Center
07:01PM 38.2233 -77.9361 219° Southwest 337 388 22,500 1,620 Climbing Washington Center
07:02PM 38.1489 -78.0156 220° Southwest 342 394 24,100 1,560 Climbing Washington Center
07:03PM 38.0722 -78.0950 219° Southwest 354 407 25,700 1,500 Climbing Washington Center
07:04PM 37.9933 -78.1739 218° Southwest 360 414 27,100 1,140 Climbing Washington Center
07:05PM 37.9081 -78.2578 218° Southwest 360 414 28,100 1,140 Climbing Washington Center
07:06PM 37.8228 -78.3392 217° Southwest 371 427 29,400 900 Climbing Washington Center
07:07PM 37.7394 -78.4175 217° Southwest 377 434 29,900 540 Climbing Washington Center
07:08PM 37.6564 -78.4983 218° Southwest 377 434 30,600 540 Climbing Washington Center
07:09PM 37.5839 -78.5636 216° Southwest 372 428 31,000 360 Climbing Washington Center
07:10PM 37.5006 -78.6414 217° Southwest 372 428 31,400 480 Climbing Washington Center
07:11PM 37.4214 -78.7167 217° Southwest 372 428 32,000 600 Climbing Washington Center
07:12PM 37.3522 -78.8053 226° Southwest 366 421 32,700 480 Climbing Washington Center
07:13PM 37.2806 -78.9069 228° Southwest 359 413 33,000 300 Climbing Washington Center
07:14PM 37.2114 -78.9978 226° Southwest 359 413 33,300 840 Climbing Washington Center
07:15PM 37.1481 -79.0914 230° Southwest 359 413 34,700 780 Climbing Washington Center
07:16PM 37.0872 -79.1772 228° Southwest 354 407 35,000 180 Climbing Washington Center
07:17PM 37.0319 -79.2786 236° Southwest 354 407 35,100 660 Climbing Washington Center
07:18PM 36.9831 -79.3775 238° Southwest 349 402 36,400 1,200 Climbing Washington Center
07:19PM 36.9225 -79.4422 221° Southwest 335 386 37,500 780 Climbing Washington Center
07:20PM 36.8417 -79.4875 204° Southwest 320 368 38,000 120 Climbing Washington Center
07:23PM 36.6125 -79.6111 203° Southwest 342 394 38,000  Level Atlanta Center
07:24PM 36.5264 -79.6572 203° Southwest 336 387 38,000  Level Atlanta Center
07:25PM 36.4447 -79.7031 204° Southwest 330 380 38,000  Level Atlanta Center
07:26PM 36.3731 -79.7403 203° Southwest 325 374 38,000  Level Atlanta Center
07:27PM 36.2892 -79.7861 204° Southwest 325 374 38,000  Level Atlanta Center
07:28PM 36.2050 -79.8292 202° Southwest 330 380 38,000  Level Atlanta Center
07:29PM 36.1253 -79.8744 205° Southwest 330 380 38,000  Level Atlanta Center
07:30PM 36.0350 -79.9200 202° Southwest 330 380 38,000  Level Atlanta Center
07:31PM 35.9511 -79.9653 204° Southwest 330 380 38,000  Level Atlanta Center
07:32PM 35.8692 -80.0106 204° Southwest 330 380 38,000  Level Atlanta Center
07:33PM 35.7872 -80.0556 204° Southwest 330 380 38,000  Level Atlanta Center
07:34PM 35.7111 -80.0900 200° South 330 380 38,000  Level Atlanta Center
07:35PM 35.6292 -80.1400 206° Southwest 330 380 38,000  Level Atlanta Center
07:36PM 35.5450 -80.1847 203° Southwest 330 380 38,000  Level Atlanta Center
07:37PM 35.4631 -80.2267 203° Southwest 330 380 38,000  Level Atlanta Center
07:38PM 35.3789 -80.2714 203° Southwest 330 380 38,000  Level Atlanta Center
07:39PM 35.2883 -80.3189 203° Southwest 330 380 38,000  Level Atlanta Center
07:40PM 35.2042 -80.3633 203° Southwest 330 380 38,000  Level Atlanta Center
07:41PM 35.1261 -80.4047 203° Southwest 329 379 38,000  Level Atlanta Center
07:43PM 34.9878 -80.4753 203° Southwest 326 375 38,000  Level Jacksonville Center
07:44PM 34.8906 -80.5261 203° Southwest 377 434 38,000  Level Jacksonville Center
07:45PM 34.8081 -80.5739 205° Southwest 332 382 38,000  Level Jacksonville Center
07:46PM 34.7256 -80.6142 202° Southwest 318 366 38,000  Level Jacksonville Center
07:47PM 34.6408 -80.6592 204° Southwest 318 366 38,000  Level Jacksonville Center
07:48PM 34.5519 -80.7044 203° Southwest 323 372 38,000  Level Jacksonville Center
07:49PM 34.4664 -80.7142 185° South 329 379 38,000  Level Jacksonville Center
07:50PM 34.3792 -80.7264 187° South 329 379 38,000  Level Jacksonville Center
07:51PM 34.2875 -80.7439 189° South 329 379 38,000  Level Jacksonville Center
07:52PM 34.2064 -80.7558 187° South 320 368 38,000  Level Jacksonville Center
07:53PM 34.1211 -80.7681 187° South 320 368 38,000  Level Jacksonville Center
07:54PM 34.0336 -80.7825 188° South 315 362 38,000  Level Jacksonville Center
07:55PM 33.9483 -80.7947 187° South 315 362 38,000  Level Jacksonville Center
07:56PM 33.8631 -80.8067 187° South 315 362 38,000  Level Jacksonville Center
07:57PM 33.7775 -80.8186 187° South 310 357 38,000  Level Jacksonville Center
07:58PM 33.6922 -80.8333 188° South 310 357 38,000  Level Jacksonville Center
07:59PM 33.6092 -80.8450 187° South 310 357 38,000  Level Jacksonville Center
08:00PM 33.5217 -80.8572 187° South 310 357 38,000  Level Jacksonville Center
08:01PM 33.4383 -80.8714 188° South 310 357 38,000  Level Jacksonville Center
08:02PM 33.3489 -80.8833 186° South 310 357 38,000  Level Jacksonville Center
08:03PM 33.2633 -80.8978 188° South 310 357 38,000  Level Jacksonville Center
08:04PM 33.1758 -80.9097 187° South 310 357 38,000  Level Jacksonville Center
08:05PM 33.0886 -80.9239 188° South 310 357 38,000  Level Jacksonville Center
08:06PM 33.0072 -80.9333 186° South 317 365 38,000  Level Jacksonville Center
08:07PM 32.9197 -80.9475 188° South 317 365 38,000  Level Jacksonville Center
08:08PM 32.8303 -80.9594 186° South 317 365 38,000  Level Jacksonville Center
08:09PM 32.7428 -80.9711 186° South 317 365 38,000  Level Jacksonville Center
08:10PM 32.6511 -80.9828 186° South 328 377 38,000  Level Jacksonville Center
08:11PM 32.5636 -80.9969 188° South 328 377 38,000  Level Jacksonville Center
08:12PM 32.4761 -81.0111 188° South 328 377 38,000  Level Jacksonville Center
08:13PM 32.3803 -81.0256 187° South 320 368 38,000  Level Jacksonville Center
08:14PM 32.3033 -81.0369 187° South 320 368 38,000  Level Jacksonville Center
08:15PM 32.2053 -81.0486 186° South 320 368 38,000  Level Jacksonville Center
08:16PM 32.1117 -81.0628 187° South 331 381 38,000  Level Jacksonville Center
08:17PM 32.0303 -81.0742 187° South 338 389 38,000  Level Jacksonville Center
08:18PM 31.9386 -81.0883 187° South 333 383 38,000  Level Jacksonville Center
08:19PM 31.8386 -81.1000 186° South 333 383 38,000  Level Jacksonville Center
08:20PM 31.7572 -81.1114 187° South 333 383 38,000  Level Jacksonville Center
08:21PM 31.6594 -81.1278 188° South 333 383 38,000  Level Jacksonville Center
08:22PM 31.5697 -81.1394 186° South 333 383 38,000  Level Jacksonville Center
08:23PM 31.4864 -81.1506 186° South 333 383 38,000  Level Jacksonville Center
08:24PM 31.3864 -81.1672 188° South 333 383 38,000  Level Jacksonville Center
08:25PM 31.3031 -81.1783 186° South 333 383 38,000  Level Jacksonville Center
08:26PM 31.2092 -81.1728 177° South 333 383 38,000  Level Jacksonville Center
08:27PM 31.1192 -81.1697 178° South 328 377 38,000  Level Jacksonville Center
08:28PM 31.0253 -81.1664 178° South 328 377 38,000  Level Jacksonville Center
08:29PM 30.9333 -81.1633 178° South 328 377 38,000  Level Jacksonville Center
08:30PM 30.8394 -81.1603 178° South 328 377 38,000  Level Jacksonville Center
08:31PM 30.7475 -81.1569 178° South 328 377 38,000  Level Jacksonville Center
08:32PM 30.6556 -81.1564 180° South 328 377 38,000  Level Jacksonville Center
08:33PM 30.5594 -81.1508 177° South 328 377 38,000  Level Jacksonville Center
08:34PM 30.4697 -81.1500 180° South 333 383 38,000  Level Jacksonville Center
08:35PM 30.3736 -81.1469 178° South 333 383 38,000  Level Jacksonville Center
08:36PM 30.2775 -81.1414 177° South 344 396 38,000  Level Jacksonville Center
08:37PM 30.1875 -81.1383 178° South 344 396 38,000  Level Jacksonville Center
08:38PM 30.0917 -81.1378 180° South 344 396 38,000  Level Jacksonville Center
08:39PM 29.9978 -81.1369 180° South 344 396 38,000  Level Jacksonville Center
08:40PM 29.9036 -81.1314 177° South 344 396 38,000  Level Jacksonville Center
08:41PM 29.8097 -81.1283 178° South 344 396 38,000  Level Jacksonville Center
08:42PM 29.7156 -81.1278 180° South 344 396 38,000  Level Jacksonville Center
08:43PM 29.6217 -81.1247 178° South 344 396 38,000  Level Jacksonville Center
08:44PM 29.5256 -81.1217 178° South 344 396 38,000  Level Jacksonville Center
08:45PM 29.4358 -81.1161 177° South 339 390 38,000 -600 Level Jacksonville Center
08:47PM 29.1864 -81.0539 168° South 340 391 36,000 -600 Descending Miami Center
08:48PM 29.0958 -81.0150 159° South 351 404 36,000  Level Miami Center
08:49PM 29.0050 -80.9783 161° South 351 404 36,000  Level Miami Center
08:50PM 28.9083 -80.9367 159° South 336 387 36,000  Level Miami Center
08:51PM 28.8153 -80.9025 162° South 342 394 36,000  Level Miami Center
08:52PM 28.7247 -80.8589 157° South 348 400 36,000  Level Miami Center
08:53PM 28.6278 -80.8178 160° South 363 418 36,000 -300 Level Miami Center
08:54PM 28.5353 -80.7694 155° Southeast 375 432 35,500 -840 Descending Miami Center
08:55PM 28.4489 -80.7239 155° Southeast 354 407 34,400 -1,140 Descending Miami Center
08:56PM 28.3689 -80.6789 154° Southeast 353 406 33,300 -1,500 Descending Miami Center
08:57PM 28.2742 -80.6283 155° Southeast 365 420 31,500 -2,100 Descending Miami Center
08:58PM 28.1711 -80.5756 156° South 383 441 29,200 -2,280 Descending Miami Center
08:59PM 28.0764 -80.5253 155° Southeast 389 448 27,000 -2,160 Descending Miami Center
09:00PM 27.9878 -80.4825 157° South 366 421 24,900 -2,220 Descending Miami Center
09:01PM 27.8950 -80.4350 156° South 360 414 22,600 -2,100 Descending Miami Center
09:02PM 27.8003 -80.3872 156° South 366 421 20,800 -1,920 Descending Miami Center
09:03PM 27.7053 -80.3375 155° Southeast 361 415 18,800 -2,040 Descending Miami Center
09:04PM 27.6250 -80.2975 156° South 329 379 16,800 -1,920 Descending Miami Center
09:05PM 27.5528 -80.2603 155° Southeast 315 362 15,000 -1,800 Descending Miami Center
09:06PM 27.4764 -80.2206 155° Southeast 315 362 13,200 -1,920 Descending Miami Center
09:07PM 27.3917 -80.1783 156° South 315 362 11,200 -1,620 Descending Miami Center
09:08PM 27.3194 -80.1411 155° Southeast 300 345 10,000 -660 Descending Miami Center
09:09PM 27.2425 -80.1272 171° South 288 331 9,900 -480 Descending Miami Center
09:10PM 27.1803 -80.1117 167° South 263 303 9,100 -900 Descending Miami Center
09:11PM 27.1097 -80.0956 169° South 256 295 8,100 -1,140 Descending Miami Center
09:12PM 27.0350 -80.0794 169° South 256 295 6,900 -1,200 Descending Miami Center
09:13PM 26.9683 -80.0661 170° South 256 295 5,800 -1,260 Descending Miami Center
09:14PM 26.9039 -80.0503 168° South 251 289 4,400 -1,440 Descending Miami Center
09:16PM 26.8094 -80.0697 190° South  Level Estimated
09:23PM 26.6832 -80.0956 190° South  Level Estimated
09:24PM 26.6832 -80.0956 222° Southwest  Level Estimated
09:25PM 26.6832 -80.0956 222° Southwest  Level Estimated
09:26PM 26.6832 -80.0956 222° Southwest  Level Estimated
09:27PM 26.6832 -80.0956 222° Southwest  Level Estimated
09:28PM 26.6832 -80.0956 222° Southwest  Level Estimated
09:29PM 26.6832 -80.0956 222° Southwest  Level Estimated